createdAt,value
2023-02-22T00:01:35.455Z,8.50
2023-02-22T00:04:04.681Z,8.50
2023-02-22T00:06:35.276Z,8.50
2023-02-22T00:09:03.431Z,8.50
2023-02-22T00:11:32.229Z,8.50
2023-02-22T00:14:04.148Z,8.40
2023-02-22T00:16:32.432Z,8.50
2023-02-22T00:19:00.642Z,8.50
2023-02-22T00:21:31.145Z,8.40
2023-02-22T00:23:59.256Z,8.40
2023-02-22T00:26:27.752Z,8.50
2023-02-22T00:28:56.372Z,8.50
2023-02-22T00:31:28.451Z,8.50
2023-02-22T00:33:58.846Z,8.50
2023-02-22T00:36:27.047Z,8.50
2023-02-22T00:38:55.645Z,8.50
2023-02-22T00:41:25.852Z,8.50
2023-02-22T00:43:56.476Z,8.50
2023-02-22T00:46:24.609Z,8.50
2023-02-22T00:48:55.857Z,8.50
2023-02-22T00:51:26.765Z,8.50
2023-02-22T00:53:56.909Z,8.50
2023-02-22T00:56:25.098Z,8.50
2023-02-22T00:58:56.166Z,8.50
2023-02-22T01:01:26.642Z,8.40
2023-02-22T01:03:59.095Z,8.50
2023-02-22T01:06:27.380Z,8.40
2023-02-22T01:08:55.568Z,8.40
2023-02-22T01:11:25.501Z,8.40
2023-02-22T01:13:55.353Z,8.40
2023-02-22T01:16:23.740Z,8.40
2023-02-22T01:18:54.280Z,8.40
2023-02-22T01:21:23.837Z,8.40
2023-02-22T01:23:52.054Z,8.40
2023-02-22T01:26:20.244Z,8.40
2023-02-22T01:29:07.140Z,8.40
2023-02-22T01:31:35.338Z,8.40
2023-02-22T01:34:03.516Z,8.40
2023-02-22T01:36:32.958Z,8.40
2023-02-22T01:39:03.310Z,8.40
2023-02-22T01:41:31.421Z,8.40
2023-02-22T01:44:15.199Z,8.40
2023-02-22T01:46:45.442Z,8.40
2023-02-22T01:49:15.975Z,8.30
2023-02-22T01:51:48.344Z,8.30
2023-02-22T01:54:19.851Z,8.30
2023-02-22T01:56:53.981Z,8.30
2023-02-22T01:59:24.964Z,8.30
2023-02-22T02:01:53.106Z,8.30
2023-02-22T02:04:25.480Z,8.20
2023-02-22T02:07:01.549Z,8.20
2023-02-22T02:09:35.257Z,8.20
2023-02-22T02:12:05.097Z,8.20
2023-02-22T02:14:33.373Z,8.10
2023-02-22T02:17:02.313Z,8.20
2023-02-22T02:19:41.890Z,8.10
2023-02-22T02:22:42.746Z,8.10
2023-02-22T02:26:00.555Z,8.10
2023-02-22T02:28:56.911Z,8.10
2023-02-22T02:32:06.081Z,8.10
2023-02-22T02:34:41.689Z,8.10
2023-02-22T02:37:21.222Z,8.00
2023-02-22T02:39:56.310Z,8.00
2023-02-22T02:42:30.935Z,8.00
2023-02-22T02:45:05.104Z,7.90
2023-02-22T02:47:39.888Z,7.90
2023-02-22T02:50:15.090Z,7.90
2023-02-22T02:52:47.498Z,7.80
2023-02-22T02:55:16.115Z,7.80
2023-02-22T02:57:44.998Z,7.70
2023-02-22T03:00:23.300Z,7.80
2023-02-22T03:03:06.500Z,7.70
2023-02-22T03:05:59.505Z,7.70
2023-02-22T03:08:35.722Z,7.70
2023-02-22T03:11:15.267Z,7.70
2023-02-22T03:13:55.583Z,7.70
2023-02-22T03:16:35.813Z,7.70
2023-02-22T03:19:12.737Z,7.70
2023-02-22T03:21:47.977Z,7.70
2023-02-22T03:24:22.972Z,7.70
2023-02-22T03:26:59.200Z,7.70
2023-02-22T03:29:36.542Z,7.70
2023-02-22T03:32:11.284Z,7.70
2023-02-22T03:34:47.527Z,7.70
2023-02-22T03:37:21.074Z,7.60
2023-02-22T03:39:52.892Z,7.60
2023-02-22T03:42:25.039Z,7.60
2023-02-22T03:44:59.601Z,7.60
2023-02-22T03:47:33.475Z,7.60
2023-02-22T03:50:12.653Z,7.60
2023-02-22T03:52:41.532Z,7.60
2023-02-22T03:55:17.663Z,7.60
2023-02-22T03:57:52.153Z,7.60
2023-02-22T04:00:23.741Z,7.60
2023-02-22T04:02:53.977Z,7.60
2023-02-22T04:05:26.170Z,7.60
2023-02-22T04:07:58.556Z,7.60
2023-02-22T04:10:29.124Z,7.60
2023-02-22T04:12:57.396Z,7.60
2023-02-22T04:15:26.318Z,7.60
2023-02-22T04:17:59.964Z,7.60
2023-02-22T04:20:32.655Z,7.60
2023-02-22T04:23:06.200Z,7.60
2023-02-22T04:25:39.146Z,7.60
2023-02-22T04:28:12.887Z,7.60
2023-02-22T04:30:48.541Z,7.60
2023-02-22T04:33:18.877Z,7.50
2023-02-22T04:35:51.530Z,7.50
2023-02-22T04:38:19.840Z,7.50
2023-02-22T04:40:49.098Z,7.50
2023-02-22T04:43:17.278Z,7.50
2023-02-22T04:45:45.462Z,7.50
2023-02-22T04:48:15.732Z,7.50
2023-02-22T04:50:44.102Z,7.50
2023-02-22T04:53:13.660Z,7.50
2023-02-22T04:55:44.037Z,7.50
2023-02-22T04:58:12.541Z,7.50
2023-02-22T05:00:40.593Z,7.40
2023-02-22T05:03:09.031Z,7.50
2023-02-22T05:05:39.189Z,7.50
2023-02-22T05:08:07.732Z,7.40
2023-02-22T05:10:37.369Z,7.40
2023-02-22T05:13:09.242Z,7.40
2023-02-22T05:15:37.660Z,7.40
2023-02-22T05:18:06.043Z,7.40
2023-02-22T05:20:37.067Z,7.40
2023-02-22T05:23:07.405Z,7.40
2023-02-22T05:25:37.025Z,7.40
2023-02-22T05:28:07.042Z,7.40
2023-02-22T05:30:40.377Z,7.40
2023-02-22T05:33:08.970Z,7.40
2023-02-22T05:35:39.511Z,7.40
2023-02-22T05:38:08.557Z,7.40
2023-02-22T05:40:38.203Z,7.40
2023-02-22T05:43:06.502Z,7.40
2023-02-22T05:45:34.807Z,7.40
2023-02-22T05:48:03.691Z,7.40
2023-02-22T05:50:34.150Z,7.30
2023-02-22T05:53:05.633Z,7.30
2023-02-22T05:55:33.783Z,7.30
2023-02-22T05:58:05.780Z,7.30
2023-02-22T06:00:36.474Z,7.30
2023-02-22T06:03:06.992Z,7.20
2023-02-22T06:05:35.491Z,7.20
2023-02-22T06:08:04.707Z,7.30
2023-02-22T06:10:35.403Z,7.20
2023-02-22T06:13:06.227Z,7.20
2023-02-22T06:15:36.904Z,7.20
2023-02-22T06:18:07.211Z,7.30
2023-02-22T06:20:37.899Z,7.30
2023-02-22T06:23:06.059Z,7.20
2023-02-22T06:25:36.702Z,7.20
2023-02-22T06:28:06.407Z,7.20
2023-02-22T06:30:34.885Z,7.20
2023-02-22T06:33:02.994Z,7.20
2023-02-22T06:35:33.254Z,7.20
2023-02-22T06:38:04.156Z,7.20
2023-02-22T06:40:34.789Z,7.20
2023-02-22T06:43:06.350Z,7.10
2023-02-22T06:45:36.558Z,7.10
2023-02-22T06:48:07.501Z,7.10
2023-02-22T06:50:38.222Z,7.10
2023-02-22T06:53:09.272Z,7.10
2023-02-22T06:55:39.869Z,7.10
2023-02-22T06:58:11.915Z,7.10
2023-02-22T07:00:40.009Z,7.10
2023-02-22T07:03:08.292Z,7.00
2023-02-22T07:05:36.482Z,7.00
2023-02-22T07:08:06.578Z,6.90
2023-02-22T07:10:38.936Z,7.00
2023-02-22T07:13:08.928Z,6.90
2023-02-22T07:15:38.584Z,7.00
2023-02-22T07:18:09.227Z,7.00
2023-02-22T07:20:37.304Z,7.00
2023-02-22T07:23:05.933Z,7.00
2023-02-22T07:25:36.750Z,7.00
2023-02-22T07:28:05.220Z,7.00
2023-02-22T07:30:35.691Z,7.00
2023-02-22T07:33:07.031Z,7.00
2023-02-22T07:35:39.469Z,7.00
2023-02-22T07:38:09.238Z,7.00
2023-02-22T07:40:39.333Z,7.00
2023-02-22T07:43:16.905Z,7.00
2023-02-22T07:45:45.629Z,7.00
2023-02-22T07:48:17.616Z,7.00
2023-02-22T07:50:46.582Z,7.00
2023-02-22T07:53:16.388Z,7.00
2023-02-22T07:55:47.765Z,7.10
2023-02-22T07:58:16.690Z,7.10
2023-02-22T08:00:45.045Z,7.10
2023-02-22T08:03:19.287Z,7.10
2023-02-22T08:05:49.294Z,7.10
2023-02-22T08:08:19.852Z,7.20
2023-02-22T08:10:49.094Z,7.20
2023-02-22T08:13:17.731Z,7.20
2023-02-22T08:15:47.225Z,7.20
2023-02-22T08:18:19.517Z,7.20
2023-02-22T08:20:49.665Z,7.10
2023-02-22T08:23:19.695Z,7.10
2023-02-22T08:25:50.181Z,7.00
2023-02-22T08:28:21.596Z,7.10
2023-02-22T08:30:52.504Z,7.10
2023-02-22T08:33:22.551Z,7.10
2023-02-22T08:35:51.728Z,7.10
2023-02-22T08:38:22.378Z,7.10
2023-02-22T08:40:53.120Z,7.10
2023-02-22T08:43:22.103Z,7.10
2023-02-22T08:45:51.596Z,7.10
2023-02-22T08:48:21.832Z,7.10
2023-02-22T08:50:50.201Z,7.20
2023-02-22T08:53:20.626Z,7.20
2023-02-22T08:55:51.275Z,7.20
2023-02-22T08:58:19.559Z,7.30
2023-02-22T09:00:48.366Z,7.30
2023-02-22T09:03:17.574Z,7.30
2023-02-22T09:05:47.158Z,7.30
2023-02-22T09:08:17.696Z,7.40
2023-02-22T09:10:46.359Z,7.40
2023-02-22T09:13:14.737Z,7.40
2023-02-22T09:15:42.882Z,7.50
2023-02-22T09:18:14.847Z,7.50
2023-02-22T09:20:43.323Z,7.50
2023-02-22T09:23:15.531Z,7.60
2023-02-22T09:25:43.666Z,7.50
2023-02-22T09:28:11.797Z,7.60
2023-02-22T09:30:40.131Z,7.50
2023-02-22T09:33:10.972Z,7.60
2023-02-22T09:35:46.348Z,7.60
2023-02-22T09:38:18.164Z,7.60
2023-02-22T09:40:49.997Z,7.60
2023-02-22T09:43:36.515Z,7.60
2023-02-22T09:46:23.434Z,7.70
2023-02-22T09:49:08.215Z,7.70
2023-02-22T09:51:42.896Z,7.70
2023-02-22T09:54:19.249Z,7.70
2023-02-22T09:56:49.622Z,7.80
2023-02-22T09:59:27.877Z,7.80
2023-02-22T10:02:06.689Z,7.90
2023-02-22T10:04:42.911Z,7.90
2023-02-22T10:07:19.415Z,8.00
2023-02-22T10:09:50.716Z,8.00
2023-02-22T10:12:29.486Z,8.10
2023-02-22T10:15:27.459Z,8.10
2023-02-22T10:18:04.954Z,8.20
2023-02-22T10:20:48.643Z,8.20
2023-02-22T10:23:25.253Z,8.30
2023-02-22T10:26:01.399Z,8.30
2023-02-22T10:28:40.626Z,8.40
2023-02-22T10:31:09.750Z,8.40
2023-02-22T10:33:47.859Z,8.40
2023-02-22T10:36:21.165Z,8.50
2023-02-22T10:38:54.652Z,8.50
2023-02-22T10:41:30.509Z,8.60
2023-02-22T10:44:06.120Z,8.60
2023-02-22T10:46:36.152Z,8.60
2023-02-22T10:49:08.112Z,8.70
2023-02-22T10:51:36.913Z,8.70
2023-02-22T10:54:22.293Z,8.80
2023-02-22T10:56:54.963Z,8.80
2023-02-22T10:59:32.791Z,8.90
2023-02-22T11:02:02.030Z,9.00
2023-02-22T11:04:46.590Z,9.10
2023-02-22T11:07:22.878Z,9.20
2023-02-22T11:09:54.708Z,9.20
2023-02-22T11:12:30.024Z,9.20
2023-02-22T11:14:58.153Z,9.30
2023-02-22T11:17:31.518Z,9.30
2023-02-22T11:20:01.032Z,9.30
2023-02-22T11:22:41.236Z,9.40
2023-02-22T11:25:10.270Z,9.40
2023-02-22T11:27:43.774Z,9.40
2023-02-22T11:30:29.531Z,9.50
2023-02-22T11:32:59.955Z,9.50
2023-02-22T11:35:38.825Z,9.60
2023-02-22T11:38:18.034Z,9.60
2023-02-22T11:40:46.813Z,9.70
2023-02-22T11:43:20.177Z,9.80
2023-02-22T11:46:02.395Z,9.80
2023-02-22T11:48:36.762Z,9.90
2023-02-22T11:51:17.803Z,10.00
2023-02-22T11:54:05.807Z,10.00
2023-02-22T11:56:41.108Z,10.00
2023-02-22T11:59:22.827Z,10.10
2023-02-22T12:01:55.476Z,10.20
2023-02-22T12:04:47.018Z,10.20
2023-02-22T12:07:27.134Z,10.30
2023-02-22T12:10:06.275Z,10.30
2023-02-22T12:12:44.231Z,10.40
2023-02-22T12:15:23.420Z,10.50
2023-02-22T12:18:05.192Z,10.50
2023-02-22T12:20:39.774Z,10.60
2023-02-22T12:23:20.111Z,10.70
2023-02-22T12:25:58.859Z,10.80
2023-02-22T12:28:35.353Z,10.80
2023-02-22T12:31:16.002Z,10.90
2023-02-22T12:33:52.872Z,10.90
2023-02-22T12:36:26.157Z,11.00
2023-02-22T12:39:07.227Z,11.10
2023-02-22T12:41:44.906Z,11.20
2023-02-22T12:44:20.654Z,11.20
2023-02-22T12:46:53.511Z,11.30
2023-02-22T12:49:29.505Z,11.30
2023-02-22T12:52:15.976Z,11.30
2023-02-22T12:55:00.699Z,11.40
2023-02-22T12:57:42.678Z,11.40
2023-02-22T13:00:20.300Z,11.40
2023-02-22T13:02:59.788Z,11.50
2023-02-22T13:05:31.540Z,11.50
2023-02-22T13:08:14.708Z,11.50
2023-02-22T13:11:02.685Z,11.60
2023-02-22T13:13:39.994Z,11.70
2023-02-22T13:16:21.889Z,11.70
2023-02-22T13:18:57.995Z,11.70
2023-02-22T13:21:37.439Z,11.70
2023-02-22T13:24:13.627Z,11.80
2023-02-22T13:26:48.404Z,11.80
2023-02-22T13:29:21.813Z,11.90
2023-02-22T13:32:16.296Z,11.90
2023-02-22T13:34:59.449Z,11.90
2023-02-22T13:37:54.753Z,12.00
2023-02-22T13:40:46.561Z,12.00
2023-02-22T13:43:51.337Z,12.00
2023-02-22T13:46:38.162Z,12.10
2023-02-22T13:49:40.578Z,12.10
2023-02-22T13:52:15.249Z,12.20
2023-02-22T13:54:51.507Z,12.20
2023-02-22T13:57:22.163Z,12.20
2023-02-22T14:00:11.333Z,12.30
2023-02-22T14:02:59.899Z,12.30
2023-02-22T14:05:49.719Z,12.30
2023-02-22T14:08:41.983Z,12.30
2023-02-22T14:11:54.112Z,12.40
2023-02-22T14:14:25.783Z,12.40
2023-02-22T14:17:23.874Z,12.40
2023-02-22T14:20:20.836Z,12.40
2023-02-22T14:22:50.950Z,12.40
2023-02-22T14:25:40.330Z,12.40
2023-02-22T14:28:11.169Z,12.40
2023-02-22T14:30:41.911Z,12.40
2023-02-22T14:33:47.278Z,12.40
2023-02-22T14:36:15.763Z,12.40
2023-02-22T14:38:47.760Z,12.40
2023-02-22T14:41:18.728Z,12.40
2023-02-22T14:43:47.681Z,12.40
2023-02-22T14:46:24.051Z,12.40
2023-02-22T14:48:58.269Z,12.40
2023-02-22T14:51:30.197Z,12.40
2023-02-22T14:54:04.747Z,12.40
2023-02-22T14:56:41.222Z,12.40
2023-02-22T14:59:19.536Z,12.40
2023-02-22T15:02:01.518Z,12.40
2023-02-22T15:04:34.405Z,12.40
2023-02-22T15:07:12.657Z,12.40
2023-02-22T15:09:46.686Z,12.40
2023-02-22T15:12:29.831Z,12.40
2023-02-22T15:15:18.570Z,12.40
2023-02-22T15:17:47.169Z,12.40
2023-02-22T15:20:17.925Z,12.40
2023-02-22T15:22:46.388Z,12.30
2023-02-22T15:25:15.291Z,12.30
2023-02-22T15:27:47.892Z,12.30
2023-02-22T15:30:23.399Z,12.30
2023-02-22T15:33:04.018Z,12.30
2023-02-22T15:35:35.371Z,12.30
2023-02-22T15:38:06.215Z,12.30
2023-02-22T15:40:37.140Z,12.30
2023-02-22T15:43:09.354Z,12.20
2023-02-22T15:45:42.940Z,12.20
2023-02-22T15:48:15.815Z,12.20
2023-02-22T15:51:04.168Z,12.20
2023-02-22T15:53:40.040Z,12.20
2023-02-22T15:56:12.364Z,12.20
2023-02-22T15:58:43.221Z,12.20
2023-02-22T16:01:14.322Z,12.10
2023-02-22T16:03:47.074Z,12.10
2023-02-22T16:06:22.086Z,12.10
2023-02-22T16:08:55.531Z,12.10
2023-02-22T16:11:30.778Z,12.00
2023-02-22T16:14:02.565Z,11.90
2023-02-22T16:16:34.990Z,11.90
2023-02-22T16:19:34.478Z,11.90
2023-02-22T16:22:04.565Z,11.80
2023-02-22T16:24:34.716Z,11.80
2023-02-22T16:27:16.707Z,11.70
2023-02-22T16:30:01.441Z,11.70
2023-02-22T16:32:30.426Z,11.70
2023-02-22T16:34:58.647Z,11.60
2023-02-22T16:37:28.575Z,11.60
2023-02-22T16:39:56.841Z,11.60
2023-02-22T16:42:25.160Z,11.50
2023-02-22T16:44:54.806Z,11.40
2023-02-22T16:47:23.252Z,11.40
2023-02-22T16:49:53.149Z,11.30
2023-02-22T16:52:22.097Z,11.30
2023-02-22T16:54:52.106Z,11.30
2023-02-22T16:57:22.605Z,11.20
2023-02-22T16:59:52.811Z,11.20
2023-02-22T17:02:22.962Z,11.10
2023-02-22T17:04:51.207Z,11.10
2023-02-22T17:07:24.191Z,11.00
2023-02-22T17:09:52.769Z,11.00
2023-02-22T17:12:21.018Z,11.00
2023-02-22T17:14:49.304Z,10.90
2023-02-22T17:17:17.785Z,10.90
2023-02-22T17:19:47.462Z,10.80
2023-02-22T17:22:19.026Z,10.80
2023-02-22T17:24:47.322Z,10.70
2023-02-22T17:27:15.621Z,10.70
2023-02-22T17:29:45.122Z,10.60
2023-02-22T17:32:14.201Z,10.60
2023-02-22T17:34:42.443Z,10.60
2023-02-22T17:37:12.393Z,10.50
2023-02-22T17:39:40.673Z,10.50
2023-02-22T17:42:08.881Z,10.50
2023-02-22T17:44:37.253Z,10.40
2023-02-22T17:47:06.165Z,10.40
2023-02-22T17:49:34.403Z,10.40
2023-02-22T17:52:06.308Z,10.40
2023-02-22T17:54:35.979Z,10.30
2023-02-22T17:57:04.388Z,10.30
2023-02-22T17:59:32.778Z,10.20
2023-02-22T18:02:03.617Z,10.20
2023-02-22T18:04:34.048Z,10.20
2023-02-22T18:07:02.334Z,10.20
2023-02-22T18:09:30.511Z,10.20
2023-02-22T18:12:00.128Z,10.10
2023-02-22T18:14:30.730Z,10.10
2023-02-22T18:16:58.865Z,10.00
2023-02-22T18:19:29.257Z,10.00
2023-02-22T18:22:00.141Z,10.00
2023-02-22T18:24:39.159Z,9.90
2023-02-22T18:27:21.284Z,9.90
2023-02-22T18:29:52.805Z,9.80
2023-02-22T18:32:23.252Z,9.80
2023-02-22T18:34:53.843Z,9.80
2023-02-22T18:37:22.064Z,9.70
2023-02-22T18:39:50.334Z,9.70
2023-02-22T18:42:21.482Z,9.60
2023-02-22T18:44:49.897Z,9.60
2023-02-22T18:47:18.787Z,9.50
2023-02-22T18:49:47.124Z,9.50
2023-02-22T18:52:15.684Z,9.50
2023-02-22T18:54:44.256Z,9.40
2023-02-22T18:57:13.635Z,9.40
2023-02-22T18:59:46.062Z,9.30
2023-02-22T19:02:15.432Z,9.30
2023-02-22T19:04:44.608Z,9.30
2023-02-22T19:07:17.951Z,9.20
2023-02-22T19:09:51.038Z,9.20
2023-02-22T19:12:19.180Z,9.20
2023-02-22T19:15:15.178Z,9.20
2023-02-22T19:17:47.330Z,9.10
2023-02-22T19:20:17.680Z,9.10
2023-02-22T19:22:49.570Z,9.10
2023-02-22T19:25:19.998Z,9.10
2023-02-22T19:27:50.708Z,9.00
2023-02-22T19:30:20.421Z,9.00
2023-02-22T19:32:48.737Z,9.00
2023-02-22T19:35:26.154Z,9.00
2023-02-22T19:37:57.124Z,9.00
2023-02-22T19:40:27.763Z,8.90
2023-02-22T19:42:58.615Z,8.90
2023-02-22T19:45:28.910Z,8.90
2023-02-22T19:48:00.604Z,8.90
2023-02-22T19:50:28.879Z,8.90
2023-02-22T19:52:59.397Z,8.90
2023-02-22T19:55:32.413Z,8.90
2023-02-22T19:58:01.203Z,8.90
2023-02-22T20:00:35.516Z,8.90
2023-02-22T20:03:06.723Z,8.90
2023-02-22T20:05:39.424Z,8.90
2023-02-22T20:08:08.042Z,9.00
2023-02-22T20:10:37.085Z,9.00
2023-02-22T20:13:05.261Z,9.00
2023-02-22T20:15:37.316Z,9.00
2023-02-22T20:18:06.137Z,9.00
2023-02-22T20:20:34.746Z,9.00
2023-02-22T20:23:02.873Z,9.10
2023-02-22T20:25:31.513Z,9.10
2023-02-22T20:28:03.009Z,9.10
2023-02-22T20:30:32.539Z,9.10
2023-02-22T20:33:02.311Z,9.10
2023-02-22T20:35:30.606Z,9.10
2023-02-22T20:37:59.667Z,9.10
2023-02-22T20:40:28.374Z,9.10
2023-02-22T20:42:57.092Z,9.10
2023-02-22T20:45:27.901Z,9.10
2023-02-22T20:47:56.195Z,9.10
2023-02-22T20:50:26.139Z,9.10
2023-02-22T20:52:54.302Z,9.10
2023-02-22T20:55:25.636Z,9.10
2023-02-22T20:57:56.411Z,9.10
2023-02-22T21:00:24.689Z,9.10
2023-02-22T21:02:53.084Z,9.10
2023-02-22T21:05:25.142Z,9.10
2023-02-22T21:07:58.411Z,9.10
2023-02-22T21:10:26.973Z,9.10
2023-02-22T21:12:56.968Z,9.10
2023-02-22T21:15:27.106Z,9.10
2023-02-22T21:17:57.993Z,9.10
2023-02-22T21:20:29.812Z,9.10
2023-02-22T21:23:01.955Z,9.10
2023-02-22T21:25:31.542Z,9.10
2023-02-22T21:27:59.825Z,9.10
2023-02-22T21:30:30.641Z,9.10
2023-02-22T21:32:58.830Z,9.10
2023-02-22T21:35:31.210Z,9.10
2023-02-22T21:37:59.562Z,9.20
2023-02-22T21:40:28.981Z,9.20
2023-02-22T21:42:57.147Z,9.20
2023-02-22T21:45:26.144Z,9.20
2023-02-22T21:47:57.270Z,9.10
2023-02-22T21:50:25.565Z,9.20
2023-02-22T21:52:55.231Z,9.20
2023-02-22T21:55:25.872Z,9.20
2023-02-22T21:57:56.402Z,9.20
2023-02-22T22:00:29.262Z,9.20
2023-02-22T22:03:01.324Z,9.20
2023-02-22T22:05:34.027Z,9.20
2023-02-22T22:08:07.445Z,9.20
2023-02-22T22:10:37.141Z,9.20
2023-02-22T22:13:06.123Z,9.20
2023-02-22T22:15:36.915Z,9.20
2023-02-22T22:18:07.756Z,9.20
2023-02-22T22:20:38.509Z,9.20
2023-02-22T22:23:08.863Z,9.30
2023-02-22T22:25:39.139Z,9.20
2023-02-22T22:28:11.402Z,9.20
2023-02-22T22:30:43.666Z,9.30
2023-02-22T22:33:12.110Z,9.20
2023-02-22T22:35:42.514Z,9.20
2023-02-22T22:38:15.441Z,9.20
2023-02-22T22:40:43.675Z,9.20
2023-02-22T22:43:11.886Z,9.20
2023-02-22T22:45:40.967Z,9.20
2023-02-22T22:48:09.500Z,9.20
2023-02-22T22:50:37.726Z,9.20
2023-02-22T22:53:06.538Z,9.20
2023-02-22T22:55:41.711Z,9.20
2023-02-22T22:58:11.098Z,9.20
2023-02-22T23:00:40.285Z,9.20
2023-02-22T23:03:12.656Z,9.20
2023-02-22T23:05:43.249Z,9.20
2023-02-22T23:08:12.868Z,9.20
2023-02-22T23:10:44.873Z,9.10
2023-02-22T23:13:15.574Z,9.20
2023-02-22T23:15:48.103Z,9.10
2023-02-22T23:18:20.432Z,9.10
2023-02-22T23:20:55.142Z,9.10
2023-02-22T23:23:27.509Z,9.10
2023-02-22T23:26:11.740Z,9.10
2023-02-22T23:28:41.204Z,9.10
2023-02-22T23:31:10.821Z,9.10
2023-02-22T23:33:41.904Z,9.10
2023-02-22T23:36:12.839Z,9.10
2023-02-22T23:38:41.970Z,9.10
2023-02-22T23:41:17.079Z,9.10
2023-02-22T23:43:47.700Z,9.10
2023-02-22T23:46:19.414Z,9.10
2023-02-22T23:48:51.862Z,9.10
2023-02-22T23:51:25.451Z,9.00
2023-02-22T23:53:55.569Z,9.10
2023-02-22T23:56:27.495Z,9.00
2023-02-22T23:58:57.369Z,9.00
